createdAt,value
2019-04-06T00:02:23.767Z,54.35
2019-04-06T00:04:52.811Z,57.55
2019-04-06T00:07:21.425Z,56.08
2019-04-06T00:09:50.055Z,51.92
2019-04-06T00:12:18.606Z,52.88
2019-04-06T00:14:47.154Z,54.40
2019-04-06T00:17:15.714Z,51.98
2019-04-06T00:19:44.254Z,51.85
2019-04-06T00:22:32.073Z,52.43
2019-04-06T00:25:00.577Z,51.80
2019-04-06T00:27:29.057Z,51.45
2019-04-06T00:29:57.594Z,55.92
2019-04-06T00:32:27.817Z,51.45
2019-04-06T00:34:56.350Z,49.60
2019-04-06T00:37:24.901Z,48.28
2019-04-06T00:39:53.473Z,50.12
2019-04-06T00:42:22.032Z,51.63
2019-04-06T00:44:50.600Z,49.45
2019-04-06T00:47:19.141Z,50.65
2019-04-06T00:49:47.702Z,51.20
2019-04-06T00:52:16.170Z,49.38
2019-04-06T00:54:44.712Z,49.08
2019-04-06T00:57:13.272Z,49.88
2019-04-06T00:59:41.756Z,49.40
2019-04-06T01:02:10.689Z,48.60
2019-04-06T01:04:39.234Z,48.42
2019-04-06T01:07:07.801Z,50.58
2019-04-06T01:09:41.123Z,49.42
2019-04-06T01:12:09.657Z,46.83
2019-04-06T01:14:38.164Z,45.75
2019-04-06T01:17:06.788Z,45.65
2019-04-06T01:19:35.369Z,48.38
2019-04-06T01:22:03.977Z,48.20
2019-04-06T01:24:32.549Z,47.10
2019-04-06T01:27:01.198Z,48.20
2019-04-06T01:29:29.772Z,48.45
2019-04-06T01:31:58.332Z,48.02
2019-04-06T01:34:26.877Z,48.00
2019-04-06T01:36:55.442Z,50.33
2019-04-06T01:39:23.977Z,50.80
2019-04-06T01:41:52.488Z,48.92
2019-04-06T01:44:21.115Z,53.25
2019-04-06T01:46:50.641Z,51.68
2019-04-06T01:49:19.197Z,49.83
2019-04-06T01:51:47.688Z,51.98
2019-04-06T01:54:16.248Z,52.78
2019-04-06T01:56:44.789Z,50.65
2019-04-06T01:59:32.597Z,50.48
2019-04-06T02:02:02.714Z,50.88
2019-04-06T02:04:31.208Z,49.45
2019-04-06T02:06:59.758Z,47.53
2019-04-06T02:09:28.346Z,47.38
2019-04-06T02:11:56.880Z,46.42
2019-04-06T02:14:25.344Z,46.92
2019-04-06T02:16:53.835Z,48.40
2019-04-06T02:19:22.378Z,46.00
2019-04-06T02:21:50.830Z,47.83
2019-04-06T02:24:19.314Z,49.23
2019-04-06T02:26:47.870Z,49.55
2019-04-06T02:29:16.319Z,46.95
2019-04-06T02:34:54.869Z,48.28
2019-04-06T02:37:24.979Z,47.50
2019-04-06T02:39:55.088Z,47.90
2019-04-06T02:42:31.187Z,47.98
2019-04-06T02:44:59.765Z,47.45
2019-04-06T02:47:28.223Z,47.58
2019-04-06T02:49:56.731Z,48.20
2019-04-06T02:52:25.228Z,49.13
2019-04-06T02:54:53.767Z,49.48
2019-04-06T02:57:22.259Z,49.58
2019-04-06T02:59:50.806Z,52.13
2019-04-06T03:02:19.518Z,47.38
2019-04-06T03:04:48.066Z,47.48
2019-04-06T03:07:16.678Z,49.18
2019-04-06T03:09:48.152Z,48.23
2019-04-06T03:12:16.618Z,50.78
2019-04-06T03:14:45.151Z,49.73
2019-04-06T03:17:13.677Z,51.92
2019-04-06T03:19:42.211Z,49.42
2019-04-06T03:22:10.779Z,49.33
2019-04-06T03:24:39.437Z,51.80
2019-04-06T03:27:07.935Z,51.53
2019-04-06T03:29:36.559Z,51.92
2019-04-06T03:32:05.085Z,52.27
2019-04-06T03:34:33.638Z,52.03
2019-04-06T03:37:02.183Z,53.55
2019-04-06T03:39:30.713Z,53.35
2019-04-06T03:41:59.470Z,53.55
2019-04-06T03:44:28.003Z,54.03
2019-04-06T03:46:56.627Z,54.13
2019-04-06T03:49:26.986Z,51.95
2019-04-06T03:51:55.438Z,47.50
2019-04-06T03:54:24.042Z,47.93
2019-04-06T03:56:52.479Z,48.85
2019-04-06T03:59:20.934Z,48.23
2019-04-06T04:01:50.070Z,48.73
2019-04-06T04:04:18.585Z,50.90
2019-04-06T04:06:47.042Z,50.92
2019-04-06T04:09:15.479Z,49.85
2019-04-06T04:11:43.926Z,50.17
2019-04-06T04:14:12.364Z,48.63
2019-04-06T04:16:40.817Z,52.23
2019-04-06T04:19:09.247Z,48.63
2019-04-06T04:21:37.709Z,47.48
2019-04-06T04:24:06.131Z,49.67
2019-04-06T04:26:34.575Z,51.20
2019-04-06T04:29:03.090Z,52.65
2019-04-06T04:31:31.953Z,49.65
2019-04-06T04:34:00.565Z,50.38
2019-04-06T04:36:29.062Z,50.75
2019-04-06T04:38:57.516Z,52.10
2019-04-06T04:41:25.943Z,48.40
2019-04-06T04:43:54.395Z,52.13
2019-04-06T04:46:22.968Z,50.65
2019-04-06T04:48:51.671Z,52.38
2019-04-06T04:51:20.138Z,49.73
2019-04-06T04:53:48.586Z,48.98
2019-04-06T04:56:17.112Z,49.93
2019-04-06T04:58:45.558Z,49.23
2019-04-06T05:01:14.196Z,50.60
2019-04-06T05:03:45.880Z,50.00
2019-04-06T05:06:14.668Z,50.10
2019-04-06T05:08:43.262Z,50.38
2019-04-06T05:11:11.700Z,51.92
2019-04-06T05:13:40.140Z,53.50
2019-04-06T05:16:13.151Z,55.12
2019-04-06T05:18:42.762Z,59.67
2019-04-06T05:21:11.947Z,59.03
2019-04-06T05:23:40.392Z,58.75
2019-04-06T05:26:08.959Z,59.90
2019-04-06T05:28:37.399Z,57.80
2019-04-06T05:31:05.994Z,60.98
2019-04-06T05:33:34.504Z,61.65
2019-04-06T05:36:04.394Z,62.95
2019-04-06T05:38:32.873Z,59.48
2019-04-06T05:41:01.426Z,62.43
2019-04-06T05:43:29.873Z,62.58
2019-04-06T05:45:58.319Z,61.98
2019-04-06T05:48:32.677Z,65.92
2019-04-06T05:51:01.145Z,68.17
2019-04-06T05:53:29.570Z,63.65
2019-04-06T05:55:58.137Z,66.50
2019-04-06T05:58:26.635Z,69.40
2019-04-06T06:00:55.147Z,68.12
2019-04-06T06:03:23.610Z,71.12
2019-04-06T06:05:52.106Z,72.62
2019-04-06T06:08:20.565Z,72.78
2019-04-06T06:10:49.066Z,74.67
2019-04-06T06:13:17.613Z,74.85
2019-04-06T06:15:46.104Z,76.17
2019-04-06T06:18:25.425Z,77.17
2019-04-06T06:20:44.860Z,77.37
2019-04-06T06:23:13.410Z,78.07
2019-04-06T06:25:41.898Z,77.87
2019-04-06T06:28:15.271Z,77.12
2019-04-06T06:30:40.513Z,80.90
2019-04-06T06:33:08.977Z,72.70
2019-04-06T06:35:37.461Z,80.07
2019-04-06T06:38:25.280Z,80.92
2019-04-06T06:40:53.735Z,79.90
2019-04-06T06:43:22.388Z,80.55
2019-04-06T06:45:50.890Z,80.55
2019-04-06T06:48:19.628Z,86.50
2019-04-06T06:50:48.153Z,85.95
2019-04-06T06:53:16.600Z,84.25
2019-04-06T06:55:45.136Z,83.10
2019-04-06T06:58:24.215Z,88.17
2019-04-06T07:00:44.198Z,89.37
2019-04-06T07:03:12.668Z,87.22
2019-04-06T07:05:42.165Z,83.17
2019-04-06T07:08:10.696Z,90.35
2019-04-06T07:10:39.141Z,88.60
2019-04-06T07:13:07.601Z,86.95
2019-04-06T07:15:36.058Z,90.05
2019-04-06T07:18:04.519Z,85.10
2019-04-06T07:20:33.026Z,82.30
2019-04-06T07:23:01.478Z,88.15
2019-04-06T07:25:30.200Z,88.03
2019-04-06T07:27:58.944Z,81.80
2019-04-06T07:30:27.440Z,85.10
2019-04-06T07:32:55.882Z,86.40
2019-04-06T07:35:24.319Z,84.85
2019-04-06T07:37:53.041Z,87.97
2019-04-06T07:40:21.569Z,87.20
2019-04-06T07:42:50.039Z,82.72
2019-04-06T07:45:18.730Z,85.05
2019-04-06T07:47:47.365Z,85.40
2019-04-06T07:50:15.904Z,85.12
2019-04-06T07:52:44.336Z,85.32
2019-04-06T07:55:12.875Z,86.02
2019-04-06T07:57:41.631Z,86.50
2019-04-06T08:00:11.141Z,87.40
2019-04-06T08:02:39.646Z,85.03
2019-04-06T08:05:08.449Z,80.80
2019-04-06T08:07:38.723Z,78.78
2019-04-06T08:10:07.724Z,82.70
2019-04-06T08:12:36.471Z,85.40
2019-04-06T08:15:06.870Z,82.12
2019-04-06T08:17:35.393Z,78.70
2019-04-06T08:20:14.474Z,79.17
2019-04-06T08:22:42.938Z,77.97
2019-04-06T08:25:11.545Z,78.97
2019-04-06T08:27:39.974Z,81.42
2019-04-06T08:30:10.110Z,76.02
2019-04-06T08:32:38.898Z,73.25
2019-04-06T08:35:08.282Z,79.45
2019-04-06T08:37:36.724Z,77.53
2019-04-06T08:40:08.544Z,76.33
2019-04-06T08:42:36.990Z,70.92
2019-04-06T08:45:06.898Z,73.37
2019-04-06T08:47:35.345Z,73.28
2019-04-06T08:50:07.519Z,75.72
2019-04-06T08:52:36.044Z,76.80
2019-04-06T08:55:06.520Z,73.62
2019-04-06T08:57:35.031Z,73.78
2019-04-06T09:00:04.922Z,73.60
2019-04-06T09:02:33.652Z,76.72
2019-04-06T09:05:02.102Z,72.53
2019-04-06T09:07:30.528Z,70.80
2019-04-06T09:09:59.005Z,72.92
2019-04-06T09:12:27.434Z,72.90
2019-04-06T09:14:55.880Z,73.97
2019-04-06T09:17:24.443Z,69.65
2019-04-06T09:19:53.039Z,72.03
2019-04-06T09:22:23.420Z,66.17
2019-04-06T09:24:51.842Z,67.65
2019-04-06T09:27:20.360Z,68.72
2019-04-06T09:29:48.801Z,72.37
2019-04-06T09:32:23.197Z,71.17
2019-04-06T09:34:51.845Z,68.78
2019-04-06T09:37:20.626Z,71.15
2019-04-06T09:39:49.160Z,67.80
2019-04-06T09:42:17.610Z,68.37
2019-04-06T09:44:53.108Z,70.45
2019-04-06T09:47:23.186Z,69.87
2019-04-06T09:50:02.270Z,67.12
2019-04-06T09:52:32.734Z,68.15
2019-04-06T09:55:14.834Z,67.05
2019-04-06T09:57:44.935Z,67.75
2019-04-06T10:00:25.201Z,66.67
2019-04-06T10:02:55.594Z,66.92
2019-04-06T10:05:26.115Z,67.72
2019-04-06T10:08:05.437Z,66.25
2019-04-06T10:10:38.234Z,63.52
2019-04-06T10:13:17.600Z,63.92
2019-04-06T10:15:56.928Z,57.93
2019-04-06T10:18:29.784Z,57.65
2019-04-06T10:21:11.923Z,57.67
2019-04-06T10:23:44.416Z,57.90
2019-04-06T10:26:20.535Z,56.88
2019-04-06T10:28:53.547Z,57.25
2019-04-06T10:31:40.148Z,57.08
2019-04-06T10:34:27.757Z,54.05
2019-04-06T10:37:03.824Z,54.70
2019-04-06T10:39:34.053Z,57.58
2019-04-06T10:42:16.133Z,53.10
2019-04-06T10:44:49.213Z,55.40
2019-04-06T10:47:37.851Z,52.98
2019-04-06T10:50:17.026Z,54.73
2019-04-06T10:52:56.373Z,48.33
2019-04-06T10:55:26.523Z,48.02
2019-04-06T10:57:56.677Z,50.23
2019-04-06T11:00:29.981Z,48.95
2019-04-06T11:03:02.797Z,49.40
2019-04-06T11:05:35.646Z,50.52
2019-04-06T11:08:05.999Z,48.75
2019-04-06T11:10:36.130Z,48.73
2019-04-06T11:13:22.412Z,48.35
2019-04-06T11:15:52.605Z,46.45
2019-04-06T11:18:28.869Z,48.10
2019-04-06T11:21:15.582Z,48.83
2019-04-06T11:23:48.638Z,49.38
2019-04-06T11:26:31.010Z,52.23
2019-04-06T11:29:07.349Z,48.65
2019-04-06T11:31:40.406Z,47.43
2019-04-06T11:34:13.148Z,45.55
2019-04-06T11:36:46.408Z,49.18
2019-04-06T11:39:16.549Z,48.15
2019-04-06T11:41:46.942Z,50.73
2019-04-06T11:44:26.079Z,50.00
2019-04-06T11:47:19.861Z,49.53
2019-04-06T11:49:52.738Z,48.05
2019-04-06T11:52:39.395Z,49.67
2019-04-06T11:55:15.445Z,49.73
2019-04-06T11:58:03.717Z,50.23
2019-04-06T12:00:39.802Z,49.67
2019-04-06T12:03:22.174Z,52.00
2019-04-06T12:05:57.810Z,51.92
2019-04-06T12:08:37.010Z,52.33
2019-04-06T12:11:13.285Z,50.65
2019-04-06T12:13:43.393Z,42.62
2019-04-06T12:16:22.811Z,42.48
2019-04-06T12:19:11.248Z,44.40
2019-04-06T12:21:53.138Z,42.38
2019-04-06T12:24:35.827Z,43.40
2019-04-06T12:27:08.785Z,40.65
2019-04-06T12:29:41.289Z,40.50
2019-04-06T12:32:11.388Z,41.23
2019-04-06T12:34:53.240Z,41.00
2019-04-06T12:37:23.404Z,39.30
2019-04-06T12:39:56.598Z,41.37
2019-04-06T12:42:27.065Z,42.13
2019-04-06T12:44:57.143Z,40.05
2019-04-06T12:47:29.856Z,40.67
2019-04-06T12:50:02.952Z,40.90
2019-04-06T12:52:33.056Z,40.48
2019-04-06T12:55:21.432Z,40.90
2019-04-06T12:57:51.702Z,40.33
2019-04-06T13:00:30.978Z,40.98
2019-04-06T13:03:06.922Z,40.92
2019-04-06T13:05:55.080Z,39.73
2019-04-06T13:08:28.177Z,39.27
2019-04-06T13:10:58.348Z,40.30
2019-04-06T13:13:30.854Z,40.92
2019-04-06T13:16:15.995Z,42.58
2019-04-06T13:19:01.059Z,40.25
2019-04-06T13:21:31.140Z,40.55
2019-04-06T13:24:19.342Z,40.23
2019-04-06T13:26:55.274Z,37.38
2019-04-06T13:29:31.132Z,39.08
2019-04-06T13:32:04.065Z,36.40
2019-04-06T13:34:52.572Z,36.35
2019-04-06T13:37:26.575Z,35.65
2019-04-06T13:40:02.432Z,34.13
2019-04-06T13:42:38.312Z,34.43
2019-04-06T13:45:21.417Z,31.87
2019-04-06T13:47:54.443Z,33.83
2019-04-06T13:50:30.642Z,32.90
2019-04-06T13:53:09.549Z,33.33
2019-04-06T13:55:45.649Z,33.08
2019-04-06T13:58:32.080Z,43.42
2019-04-06T14:01:14.797Z,33.58
2019-04-06T14:03:52.938Z,36.42
2019-04-06T14:06:32.578Z,33.10
2019-04-06T14:09:03.127Z,31.15
2019-04-06T14:11:42.538Z,31.93
2019-04-06T14:14:18.699Z,29.90
2019-04-06T14:17:03.859Z,29.87
2019-04-06T14:19:36.485Z,30.62
2019-04-06T14:22:18.947Z,29.80
2019-04-06T14:24:49.374Z,30.23
2019-04-06T14:27:22.573Z,29.65
2019-04-06T14:29:55.821Z,29.32
2019-04-06T14:32:34.713Z,27.58
2019-04-06T14:35:07.452Z,28.67
2019-04-06T14:37:43.603Z,29.90
2019-04-06T14:40:16.609Z,26.80
2019-04-06T14:43:04.745Z,28.27
2019-04-06T14:45:37.829Z,28.12
2019-04-06T14:48:09.422Z,26.57
2019-04-06T14:50:48.639Z,25.25
2019-04-06T14:53:18.789Z,24.75
2019-04-06T14:55:51.352Z,23.18
2019-04-06T14:58:33.748Z,22.77
2019-04-06T15:01:10.058Z,22.62
2019-04-06T15:03:56.729Z,22.95
2019-04-06T15:06:43.007Z,31.05
2019-04-06T15:09:19.109Z,33.92
2019-04-06T15:11:51.919Z,35.55
2019-04-06T15:14:33.855Z,36.65
2019-04-06T15:17:07.328Z,36.68
2019-04-06T15:19:53.805Z,35.68
2019-04-06T15:22:32.987Z,37.17
2019-04-06T15:25:03.166Z,39.80
2019-04-06T15:27:33.257Z,36.93
2019-04-06T15:30:03.392Z,38.00
2019-04-06T15:32:33.502Z,38.13
2019-04-06T15:35:09.093Z,39.78
2019-04-06T15:37:48.036Z,37.28
2019-04-06T15:40:20.531Z,38.73
2019-04-06T15:42:53.329Z,38.53
2019-04-06T15:45:40.202Z,38.60
2019-04-06T15:48:19.601Z,40.50
2019-04-06T15:50:49.749Z,38.88
2019-04-06T15:53:19.850Z,38.70
2019-04-06T15:56:04.781Z,37.23
2019-04-06T15:58:43.939Z,38.45
2019-04-06T16:01:19.963Z,36.30
2019-04-06T16:03:56.774Z,37.20
2019-04-06T16:06:36.416Z,37.93
2019-04-06T16:09:08.863Z,37.28
2019-04-06T16:11:54.595Z,38.45
2019-04-06T16:14:25.258Z,37.53
2019-04-06T16:16:55.830Z,37.80
2019-04-06T16:19:26.177Z,37.63
2019-04-06T16:22:12.678Z,38.25
2019-04-06T16:25:11.921Z,36.53
2019-04-06T16:28:11.681Z,38.65
2019-04-06T16:31:14.673Z,39.88
2019-04-06T16:34:10.131Z,36.53
2019-04-06T16:37:08.472Z,37.48
2019-04-06T16:39:45.759Z,37.53
2019-04-06T16:42:37.217Z,38.30
2019-04-06T16:48:17.357Z,37.95
2019-04-06T16:51:05.196Z,37.20
2019-04-06T16:53:42.843Z,36.80
2019-04-06T16:56:27.724Z,37.35
2019-04-06T16:58:57.960Z,36.40
2019-04-06T17:01:32.225Z,36.30
2019-04-06T17:04:01.510Z,34.03
2019-04-06T17:06:47.990Z,35.48
2019-04-06T17:09:18.142Z,36.98
2019-04-06T17:11:51.012Z,37.03
2019-04-06T17:14:24.016Z,36.25
2019-04-06T17:17:10.613Z,37.83
2019-04-06T17:19:46.492Z,35.83
2019-04-06T17:22:28.537Z,36.68
2019-04-06T17:25:15.254Z,35.38
2019-04-06T17:27:45.356Z,35.00
2019-04-06T17:30:27.842Z,37.40
2019-04-06T17:33:00.868Z,36.80
2019-04-06T17:35:40.283Z,36.00
2019-04-06T17:38:10.454Z,37.80
2019-04-06T17:40:55.913Z,35.98
2019-04-06T17:43:26.463Z,37.58
2019-04-06T17:46:12.928Z,37.85
2019-04-06T17:48:45.780Z,37.73
2019-04-06T17:51:30.980Z,36.93
2019-04-06T17:54:06.822Z,37.13
2019-04-06T17:56:36.938Z,36.95
2019-04-06T17:59:24.755Z,36.23
2019-04-06T18:02:04.267Z,37.75
2019-04-06T18:04:43.631Z,37.15
2019-04-06T18:07:29.185Z,37.58
2019-04-06T18:10:02.469Z,36.80
2019-04-06T18:12:32.632Z,38.95
2019-04-06T18:15:01.145Z,36.70
2019-04-06T18:17:29.974Z,35.33
2019-04-06T18:19:58.517Z,36.13
2019-04-06T18:22:26.986Z,38.02
2019-04-06T18:24:55.759Z,36.83
2019-04-06T18:27:24.379Z,37.40
2019-04-06T18:29:52.827Z,36.98
2019-04-06T18:32:29.710Z,37.48
2019-04-06T18:34:58.175Z,36.65
2019-04-06T18:37:28.333Z,35.78
2019-04-06T18:40:01.546Z,36.73
2019-04-06T18:42:30.151Z,34.70
2019-04-06T18:44:58.754Z,36.28
2019-04-06T18:47:27.525Z,37.00
2019-04-06T18:49:56.214Z,34.03
2019-04-06T18:52:24.679Z,34.08
2019-04-06T18:54:53.132Z,35.65
2019-04-06T18:57:21.949Z,35.63
2019-04-06T18:59:50.521Z,37.05
2019-04-06T19:02:18.951Z,35.92
2019-04-06T19:04:47.645Z,35.08
2019-04-06T19:07:16.413Z,35.10
2019-04-06T19:09:45.158Z,34.95
2019-04-06T19:12:14.499Z,35.05
2019-04-06T19:14:43.119Z,36.50
2019-04-06T19:17:11.815Z,35.33
2019-04-06T19:19:40.786Z,34.40
2019-04-06T19:22:09.413Z,36.75
2019-04-06T19:24:37.939Z,35.70
2019-04-06T19:27:06.610Z,35.58
2019-04-06T19:29:35.117Z,37.23
2019-04-06T19:32:03.578Z,37.28
2019-04-06T19:34:32.562Z,37.05
2019-04-06T19:37:01.085Z,37.08
2019-04-06T19:39:29.539Z,38.65
2019-04-06T19:41:58.355Z,39.23
2019-04-06T19:44:27.207Z,39.38
2019-04-06T19:46:55.912Z,39.63
2019-04-06T19:49:24.373Z,38.30
2019-04-06T19:51:53.175Z,42.35
2019-04-06T19:54:22.117Z,41.40
2019-04-06T19:56:50.672Z,40.73
2019-04-06T19:59:19.522Z,40.45
2019-04-06T20:01:48.166Z,39.10
2019-04-06T20:04:16.815Z,41.35
2019-04-06T20:06:45.549Z,41.98
2019-04-06T20:09:14.198Z,40.92
2019-04-06T20:11:42.662Z,41.90
2019-04-06T20:14:11.119Z,43.08
2019-04-06T20:16:39.632Z,42.60
2019-04-06T20:19:08.065Z,42.45
2019-04-06T20:21:36.512Z,41.58
2019-04-06T20:24:07.173Z,40.08
2019-04-06T20:26:36.047Z,42.35
2019-04-06T20:29:04.750Z,42.13
2019-04-06T20:31:33.233Z,43.42
2019-04-06T20:34:01.908Z,41.60
2019-04-06T20:36:30.487Z,43.98
2019-04-06T20:38:59.316Z,42.05
2019-04-06T20:41:27.898Z,42.05
2019-04-06T20:43:56.389Z,42.25
2019-04-06T20:46:24.839Z,43.25
2019-04-06T20:48:53.830Z,43.08
2019-04-06T20:51:22.592Z,43.98
2019-04-06T20:53:51.066Z,42.85
2019-04-06T20:56:19.682Z,42.50
2019-04-06T20:58:48.150Z,42.78
2019-04-06T21:01:16.668Z,44.50
2019-04-06T21:03:45.385Z,44.08
2019-04-06T21:06:14.009Z,44.35
2019-04-06T21:08:42.537Z,42.67
2019-04-06T21:11:11.142Z,43.90
2019-04-06T21:13:39.601Z,44.70
2019-04-06T21:16:08.053Z,44.98
2019-04-06T21:18:36.690Z,43.13
2019-04-06T21:21:05.223Z,45.60
2019-04-06T21:23:33.879Z,43.48
2019-04-06T21:26:02.827Z,44.10
2019-04-06T21:28:31.409Z,44.25
2019-04-06T21:30:59.834Z,44.80
2019-04-06T21:33:28.623Z,46.15
2019-04-06T21:35:57.116Z,44.40
2019-04-06T21:38:25.551Z,46.80
2019-04-06T21:40:54.430Z,46.50
2019-04-06T21:43:23.416Z,46.02
2019-04-06T21:45:52.121Z,46.50
2019-04-06T21:48:21.237Z,46.92
2019-04-06T21:50:50.146Z,46.08
2019-04-06T21:53:19.601Z,49.13
2019-04-06T21:56:00.588Z,47.83
2019-04-06T21:58:18.801Z,47.53
2019-04-06T22:00:52.466Z,47.17
2019-04-06T22:03:21.212Z,47.75
2019-04-06T22:05:50.479Z,48.63
2019-04-06T22:08:19.280Z,47.90
2019-04-06T22:10:48.069Z,47.73
2019-04-06T22:13:16.664Z,47.60
2019-04-06T22:15:45.378Z,47.67
2019-04-06T22:18:13.808Z,48.85
2019-04-06T22:20:42.237Z,49.60
2019-04-06T22:23:10.681Z,48.52
2019-04-06T22:25:39.118Z,48.60
2019-04-06T22:28:07.566Z,49.00
2019-04-06T22:30:36.366Z,48.60
2019-04-06T22:33:04.890Z,48.95
2019-04-06T22:35:33.953Z,50.38
2019-04-06T22:38:03.107Z,47.27
2019-04-06T22:40:31.543Z,49.45
2019-04-06T22:42:59.991Z,50.08
2019-04-06T22:45:31.106Z,49.25
2019-04-06T22:47:59.783Z,46.90
2019-04-06T22:50:28.422Z,49.00
2019-04-06T22:52:57.328Z,50.48
2019-04-06T22:55:25.827Z,49.55
2019-04-06T22:57:54.260Z,50.73
2019-04-06T23:00:33.671Z,50.20
2019-04-06T23:03:03.780Z,48.28
2019-04-06T23:05:33.918Z,49.85
2019-04-06T23:08:02.355Z,50.28
2019-04-06T23:10:30.844Z,50.88
2019-04-06T23:12:59.658Z,50.48
2019-04-06T23:15:28.208Z,50.65
2019-04-06T23:17:58.076Z,50.20
2019-04-06T23:20:26.742Z,51.13
2019-04-06T23:22:55.515Z,50.25
2019-04-06T23:25:24.403Z,50.10
2019-04-06T23:27:53.346Z,49.95
2019-04-06T23:30:21.902Z,49.98
2019-04-06T23:32:50.667Z,48.55
2019-04-06T23:35:19.694Z,50.58
2019-04-06T23:37:48.290Z,49.48
2019-04-06T23:40:16.816Z,50.35
2019-04-06T23:42:45.852Z,50.55
2019-04-06T23:45:15.105Z,49.98
2019-04-06T23:47:43.657Z,49.90
2019-04-06T23:50:12.345Z,48.25
2019-04-06T23:52:41.016Z,49.30
2019-04-06T23:55:09.736Z,48.00
2019-04-06T23:57:38.418Z,50.67
